Time;durP1;ratioP1;P1;durP2;ratioP2;P2;SDS_P1;SDS_P2;PMS_P1;PMS_P2;Temp;Humidity;BMP_temperature;BMP_pressure;BME280_temperature;BME280_humidity;BME280_pressure;Samples;Min_cycle;Max_cycle;Signal;HPM_P1;HPM_P2
2021/11/09 00:03:38;;;;;;;31.35;12.05;;;7.90;99.90;;;;;;12421319;28;20492;-38
2021/11/09 00:16:00;;;;;;;33.28;13.15;;;8.00;99.90;;;;;;12417617;28;20088;-37
2021/11/09 00:22:02;;;;;;;24.05;13.40;;;8.00;99.90;;;;;;12419904;28;20389;-41
2021/11/09 00:28:05;;;;;;;26.98;13.40;;;8.00;99.90;;;;;;12423464;28;20096;-37
2021/11/09 00:34:07;;;;;;;32.05;15.15;;;8.00;99.90;;;;;;12420906;28;20053;-41
2021/11/09 00:40:10;;;;;;;32.80;15.07;;;8.00;99.90;;;;;;12420584;28;20089;-37
2021/11/09 00:46:13;;;;;;;39.03;16.13;;;8.00;99.90;;;;;;12405851;28;20137;-37
2021/11/09 00:52:15;;;;;;;38.88;16.80;;;8.00;99.90;;;;;;12418184;28;20053;-37
2021/11/09 00:58:17;;;;;;;46.53;20.40;;;8.00;99.90;;;;;;12420030;28;20057;-37
2021/11/09 01:04:19;;;;;;;48.60;20.63;;;8.00;99.90;;;;;;12420117;28;20544;-42
2021/11/09 01:10:22;;;;;;;40.60;18.90;;;8.00;99.90;;;;;;12419441;28;20387;-38
2021/11/09 01:16:24;;;;;;;40.70;17.95;;;8.10;99.90;;;;;;12412556;28;20049;-37
2021/11/09 01:22:26;;;;;;;43.03;19.58;;;8.10;99.90;;;;;;12407961;28;20046;-41
2021/11/09 01:28:28;;;;;;;37.65;18.33;;;8.00;99.90;;;;;;12412922;28;20144;-41
2021/11/09 01:34:30;;;;;;;39.88;19.27;;;8.10;99.90;;;;;;12411325;28;20053;-41
2021/11/09 01:40:33;;;;;;;38.38;18.77;;;8.00;99.90;;;;;;12406087;28;20081;-37
2021/11/09 01:46:35;;;;;;;37.22;18.27;;;8.00;99.90;;;;;;12408856;28;20061;-41
2021/11/09 01:52:38;;;;;;;37.90;19.67;;;8.00;99.90;;;;;;12409357;28;20050;-42
2021/11/09 01:58:40;;;;;;;47.78;19.65;;;8.00;99.90;;;;;;12408958;28;20419;-42
2021/11/09 02:04:43;;;;;;;39.90;19.52;;;8.00;99.90;;;;;;12404998;28;20566;-37
2021/11/09 02:10:48;;;;;;;43.45;19.20;;;8.00;99.90;;;;;;12418988;28;20046;-42
2021/11/09 02:16:52;;;;;;;41.28;18.90;;;8.00;99.90;;;;;;12398992;28;20072;-42
2021/11/09 02:22:55;;;;;;;42.75;18.30;;;8.00;99.90;;;;;;12395928;28;20074;-37
2021/11/09 02:28:59;;;;;;;34.22;17.55;;;7.90;99.90;;;;;;12418448;28;20439;-43
2021/11/09 02:35:01;;;;;;;36.10;16.88;;;7.90;99.90;;;;;;12415573;28;20156;-42
2021/11/09 02:41:03;;;;;;;38.65;16.80;;;7.90;99.90;;;;;;12417706;28;20050;-42
2021/11/09 02:47:08;;;;;;;43.60;16.88;;;7.80;99.90;;;;;;12416281;28;20149;-42
2021/11/09 03:05:56;;;;;;;42.30;17.27;;;7.80;99.90;;;;;;12409540;28;20189;-37
2021/11/09 03:12:00;;;;;;;40.28;17.25;;;7.80;99.90;;;;;;12415766;28;20050;-38
2021/11/09 03:18:06;;;;;;;40.75;17.08;;;7.80;99.90;;;;;;12418733;28;20060;-41
2021/11/09 03:49:36;;;;;;;37.65;15.48;;;7.80;99.90;;;;;;12418381;28;20058;-40
2021/11/09 04:52:40;;;;;;;38.25;13.05;;;7.60;99.90;;;;;;12418377;28;20129;-38
2021/11/09 05:11:24;;;;;;;28.40;11.68;;;7.50;99.90;;;;;;12415746;28;20088;-37
2021/11/09 05:17:26;;;;;;;32.83;13.38;;;7.40;99.90;;;;;;12420586;28;20516;-43
2021/11/09 05:23:28;;;;;;;29.88;11.73;;;7.40;99.90;;;;;;12417517;28;20206;-43
2021/11/09 05:29:30;;;;;;;41.47;12.13;;;7.30;99.90;;;;;;12416713;28;20050;-43
2021/11/09 05:35:33;;;;;;;40.25;11.98;;;7.30;99.90;;;;;;12416783;28;20045;-37
2021/11/09 05:41:38;;;;;;;40.10;11.77;;;7.30;99.90;;;;;;12424593;28;20042;-37
2021/11/09 05:47:40;;;;;;;;;;;7.20;99.90;;;;;;12421936;28;20580;-37
2021/11/09 05:53:42;;;;;;;31.48;10.68;;;7.00;99.90;;;;;;12422124;28;19925;-38
2021/11/09 05:59:44;;;;;;;39.25;11.35;;;7.00;99.90;;;;;;12426804;28;20041;-42
2021/11/09 06:05:46;;;;;;;35.53;11.90;;;7.00;99.90;;;;;;12421314;28;20565;-41
2021/11/09 06:11:48;;;;;;;35.15;10.02;;;6.90;99.90;;;;;;12428446;28;20061;-38
2021/11/09 06:17:50;;;;;;;31.10;10.15;;;6.80;99.90;;;;;;12424477;28;20046;-38
2021/11/09 06:23:53;;;;;;;31.88;11.18;;;6.70;99.90;;;;;;12426052;28;20133;-37
2021/11/09 06:29:55;;;;;;;30.17;10.98;;;6.60;99.90;;;;;;12404356;28;20053;-37
2021/11/09 06:35:57;;;;;;;38.78;10.80;;;6.60;99.90;;;;;;12424603;28;20121;-41
2021/11/09 06:42:01;;;;;;;33.40;10.17;;;6.60;99.90;;;;;;12427732;28;20492;-41
2021/11/09 06:48:04;;;;;;;34.00;11.00;;;6.60;99.90;;;;;;12425231;28;20061;-42
2021/11/09 06:54:07;;;;;;;26.73;9.70;;;6.60;99.90;;;;;;12425993;28;20586;-41
2021/11/09 07:00:13;;;;;;;34.15;10.02;;;6.60;99.90;;;;;;12426496;28;20045;-37
2021/11/09 07:06:15;;;;;;;33.63;11.13;;;6.50;99.90;;;;;;12424758;28;20104;-37
2021/11/09 07:12:18;;;;;;;37.22;11.60;;;6.60;99.90;;;;;;12422506;28;20050;-41
2021/11/09 07:18:22;;;;;;;32.88;11.60;;;6.70;99.90;;;;;;12426169;28;20796;-41
2021/11/09 07:24:30;;;;;;;33.47;11.68;;;6.70;99.90;;;;;;12426101;28;20715;-41
2021/11/09 07:30:42;;;;;;;28.70;10.27;;;6.70;99.90;;;;;;12424916;28;20050;-37
2021/11/09 07:36:44;;;;;;;29.05;10.20;;;6.70;99.90;;;;;;12430254;28;20073;-41
2021/11/09 07:42:49;;;;;;;33.55;10.93;;;6.80;99.90;;;;;;12422792;28;20050;-37
2021/11/09 07:48:52;;;;;;;33.70;11.32;;;7.00;99.90;;;;;;12429745;28;20058;-42
2021/11/09 07:54:59;;;;;;;30.65;10.55;;;7.10;99.90;;;;;;12423567;28;20142;-37
2021/11/09 08:01:14;;;;;;;35.20;10.93;;;7.20;99.90;;;;;;12402561;28;20173;-41
2021/11/09 08:07:21;;;;;;;32.72;11.73;;;7.50;99.90;;;;;;12413137;28;20149;-41
2021/11/09 08:13:23;;;;;;;32.78;9.68;;;7.70;99.90;;;;;;12426374;28;20096;-37
2021/11/09 08:19:25;;;;;;;26.25;9.20;;;7.90;99.90;;;;;;12430084;28;20072;-40
2021/11/09 08:25:27;;;;;;;21.10;8.70;;;8.10;99.90;;;;;;12420769;28;20140;-37
2021/11/09 08:31:31;;;;;;;28.10;8.20;;;8.30;99.90;;;;;;12421233;28;20097;-41
2021/11/09 08:37:34;;;;;;;28.10;8.80;;;8.40;99.90;;;;;;12419320;28;20049;-41
2021/11/09 08:43:39;;;;;;;29.00;9.20;;;8.50;99.90;;;;;;12422168;28;20050;-37
2021/11/09 08:49:43;;;;;;;25.65;8.27;;;8.60;99.90;;;;;;12421030;28;20053;-38
2021/11/09 09:08:17;;;;;;;;;;;8.90;99.90;;;;;;12418750;28;20057;-42
2021/11/09 09:14:21;;;;;;;16.80;6.35;;;9.00;99.90;;;;;;12424943;28;20012;-41
2021/11/09 09:20:26;;;;;;;18.83;6.93;;;9.10;99.90;;;;;;12433348;28;20054;-36
2021/11/09 09:26:37;;;;;;;15.40;5.65;;;9.20;99.90;;;;;;12415135;28;20133;-37
2021/11/09 09:57:33;;;;;;;17.08;5.05;;;9.70;99.90;;;;;;12432475;28;20054;-37
2021/11/09 10:03:38;;;;;;;17.10;5.30;;;9.80;99.90;;;;;;12428882;28;20049;-42
2021/11/09 10:09:45;;;;;;;13.32;5.55;;;10.10;99.90;;;;;;12400593;28;20065;-38
2021/11/09 10:15:51;;;;;;;13.30;4.20;;;10.30;99.90;;;;;;12430960;28;20050;-37
2021/11/09 10:21:56;;;;;;;13.65;4.20;;;10.60;99.90;;;;;;12429089;28;20069;-37
2021/11/09 10:28:05;;;;;;;12.23;3.95;;;10.90;99.90;;;;;;12428303;28;20116;-41
2021/11/09 10:34:27;;;;;;;8.60;3.75;;;11.00;99.90;;;;;;12426435;28;20136;-38
2021/11/09 10:40:46;;;;;;;11.77;3.60;;;11.50;99.90;;;;;;12427376;28;20053;-42
2021/11/09 10:46:48;;;;;;;9.38;3.05;;;11.50;99.90;;;;;;12413591;28;20069;-41
2021/11/09 10:53:02;;;;;;;7.93;3.05;;;11.50;99.90;;;;;;12429808;28;20515;-42
2021/11/09 11:05:21;;;;;;;6.88;3.08;;;11.50;99.90;;;;;;12430854;28;19925;-42
2021/11/09 11:11:29;;;;;;;9.57;3.58;;;11.70;99.90;;;;;;12425743;28;20467;-37
2021/11/09 11:17:37;;;;;;;9.98;2.78;;;11.90;99.90;;;;;;12425029;28;20054;-37
2021/11/09 11:23:42;;;;;;;9.23;2.72;;;12.20;99.90;;;;;;12423809;28;20164;-41
2021/11/09 11:29:44;;;;;;;;;;;12.10;99.90;;;;;;12426500;28;20111;-42
2021/11/09 11:35:48;;;;;;;6.60;2.75;;;12.00;99.90;;;;;;12422685;28;20395;-42
2021/11/09 11:41:54;;;;;;;;;;;12.10;99.90;;;;;;12424373;28;20084;-37
2021/11/09 11:48:04;;;;;;;9.90;4.15;;;12.30;99.90;;;;;;12424725;28;19932;-37
2021/11/09 11:54:09;;;;;;;12.02;3.70;;;12.40;99.90;;;;;;12422569;28;20054;-42
2021/11/09 12:00:39;;;;;;;12.40;3.47;;;12.50;99.90;;;;;;12426227;28;20062;-37
2021/11/09 12:06:51;;;;;;;7.50;2.90;;;12.50;99.90;;;;;;12426008;28;20049;-41
2021/11/09 12:13:02;;;;;;;10.52;2.95;;;12.40;99.90;;;;;;12422966;28;20137;-37
2021/11/09 12:19:04;;;;;;;6.50;2.70;;;12.50;99.90;;;;;;12423728;28;20050;-41
2021/11/09 12:25:09;;;;;;;9.85;3.10;;;12.70;99.90;;;;;;12422251;28;20310;-42
2021/11/09 12:31:16;;;;;;;11.40;2.60;;;12.60;99.90;;;;;;12408801;28;20458;-42
2021/11/09 12:37:22;;;;;;;10.82;2.67;;;12.50;99.90;;;;;;12422587;28;20133;-38
2021/11/09 12:43:33;;;;;;;8.48;3.08;;;12.60;99.90;;;;;;12425183;28;20153;-42
2021/11/09 12:49:38;;;;;;;7.95;2.58;;;12.70;99.90;;;;;;12424110;28;20156;-41
2021/11/09 12:55:42;;;;;;;8.95;2.75;;;12.60;99.90;;;;;;12424826;28;20140;-38
2021/11/09 13:08:14;;;;;;;6.68;2.47;;;12.50;99.90;;;;;;12419000;28;20061;-38
2021/11/09 13:14:19;;;;;;;10.40;3.00;;;12.40;99.90;;;;;;12418918;28;20050;-37
2021/11/09 13:20:52;;;;;;;7.30;2.60;;;12.30;99.90;;;;;;12416992;28;20271;-37
2021/11/09 13:26:54;;;;;;;8.30;2.80;;;12.20;99.90;;;;;;12419413;28;20093;-37
2021/11/09 13:32:57;;;;;;;7.50;3.30;;;12.10;99.90;;;;;;12418093;28;20828;-37
2021/11/09 13:39:00;;;;;;;6.43;2.33;;;11.90;99.90;;;;;;12397543;28;20050;-37
2021/11/09 13:45:03;;;;;;;7.57;2.60;;;11.90;99.90;;;;;;12420341;28;20116;-38
2021/11/09 13:51:09;;;;;;;9.57;3.10;;;11.80;99.90;;;;;;12418159;28;20142;-37
2021/11/09 13:57:13;;;;;;;7.72;2.30;;;11.80;99.90;;;;;;12418913;28;20913;-40
2021/11/09 14:22:21;;;;;;;9.70;2.53;;;11.50;99.90;;;;;;12427695;28;20492;-41
2021/11/09 14:28:38;;;;;;;13.20;2.40;;;11.40;99.90;;;;;;12426478;28;20088;-37
2021/11/09 14:34:58;;;;;;;9.18;2.05;;;11.40;99.90;;;;;;12429317;28;20069;-37
2021/11/09 14:41:12;;;;;;;5.88;2.70;;;11.30;99.90;;;;;;12426673;28;20107;-42
2021/11/09 14:47:19;;;;;;;4.80;1.60;;;11.20;99.90;;;;;;12431463;28;20046;-38
2021/11/09 15:00:04;;;;;;;6.50;1.70;;;11.00;99.90;;;;;;12427902;28;20046;-37
2021/11/09 15:06:13;;;;;;;6.38;1.63;;;10.90;99.90;;;;;;12409740;28;20401;-41
2021/11/09 15:38:00;;;;;;;3.78;1.80;;;10.30;99.90;;;;;;12425940;28;20061;-37
2021/11/09 15:44:03;;;;;;;5.32;1.70;;;10.10;99.90;;;;;;12425495;28;20046;-37
2021/11/09 15:50:06;;;;;;;6.22;1.83;;;9.80;99.90;;;;;;12423706;28;20138;-41
2021/11/09 15:56:08;;;;;;;5.53;1.58;;;9.60;99.90;;;;;;12425116;28;20490;-37
2021/11/09 16:02:12;;;;;;;5.68;2.03;;;9.50;99.90;;;;;;12430232;28;20420;-42
2021/11/09 16:08:17;;;;;;;5.20;1.67;;;9.20;99.90;;;;;;12416772;28;20077;-37
2021/11/09 16:14:21;;;;;;;4.28;2.33;;;9.10;99.90;;;;;;12407025;28;20945;-38
2021/11/09 16:20:23;;;;;;;6.63;2.72;;;8.80;99.90;;;;;;12421539;28;20519;-38
2021/11/09 16:26:25;;;;;;;5.78;2.72;;;8.60;99.90;;;;;;12421828;28;20487;-42
2021/11/09 16:32:30;;;;;;;5.75;2.70;;;8.50;99.90;;;;;;12428176;28;20480;-41
2021/11/09 16:38:39;;;;;;;9.57;2.78;;;8.60;99.90;;;;;;12425141;28;20065;-42
2021/11/09 16:44:42;;;;;;;5.45;2.20;;;8.60;99.90;;;;;;12423845;28;20053;-37
2021/11/09 16:57:20;;;;;;;8.50;2.55;;;8.50;99.90;;;;;;12427720;28;20042;-37
2021/11/09 18:25:37;;;;;;;6.85;2.70;;;8.10;99.90;;;;;;12381382;28;20892;-37
2021/11/09 18:31:39;;;;;;;7.88;2.80;;;8.10;99.90;;;;;;12420231;28;20050;-39
2021/11/09 18:37:42;;;;;;;6.70;2.65;;;8.00;99.90;;;;;;12429746;28;20060;-37
2021/11/09 18:43:45;;;;;;;9.50;3.13;;;8.00;99.90;;;;;;12409890;28;20070;-40
2021/11/09 18:49:47;;;;;;;10.70;3.00;;;8.10;99.90;;;;;;12424372;28;20080;-41
2021/11/09 18:55:53;;;;;;;8.20;2.90;;;8.00;99.90;;;;;;12432194;28;20156;-41
2021/11/09 19:01:55;;;;;;;8.82;2.80;;;8.00;99.90;;;;;;12424201;28;20453;-41
2021/11/09 19:07:58;;;;;;;9.07;3.28;;;8.00;99.90;;;;;;12428232;28;20150;-37
2021/11/09 19:14:00;;;;;;;9.18;2.80;;;7.90;99.90;;;;;;12425991;28;20108;-37
2021/11/09 19:20:05;;;;;;;10.35;3.25;;;7.90;99.90;;;;;;12423120;28;20060;-41
2021/11/09 19:26:09;;;;;;;8.38;2.72;;;7.80;99.90;;;;;;12425948;28;20074;-36
2021/11/09 19:32:11;;;;;;;7.43;3.30;;;7.80;99.90;;;;;;12379814;28;20137;-36
2021/11/09 19:38:13;;;;;;;8.35;2.88;;;7.70;99.90;;;;;;12375030;28;20162;-42
2021/11/09 19:44:15;;;;;;;7.50;2.92;;;7.70;99.90;;;;;;12376262;28;20636;-37
2021/11/09 19:50:20;;;;;;;9.30;3.55;;;7.70;99.90;;;;;;12378352;28;20058;-41
2021/11/09 19:56:23;;;;;;;10.40;3.47;;;7.80;99.90;;;;;;12376690;28;20185;-37
2021/11/09 20:02:25;;;;;;;6.28;3.03;;;7.70;99.90;;;;;;12373601;28;20042;-37
2021/11/09 20:08:28;;;;;;;9.02;3.60;;;7.60;99.90;;;;;;12371928;28;20061;-37
2021/11/09 20:14:37;;;;;;;12.70;4.60;;;7.60;99.90;;;;;;12362668;28;20050;-41
2021/11/09 20:20:41;;;;;;;9.10;3.80;;;7.60;99.90;;;;;;12354884;28;20054;-37
2021/11/09 20:26:44;;;;;;;10.20;3.22;;;7.60;99.90;;;;;;12376184;28;20659;-37
2021/11/09 20:32:46;;;;;;;10.00;3.58;;;7.70;99.90;;;;;;12424473;28;20096;-37
2021/11/09 20:38:49;;;;;;;7.85;3.28;;;7.70;99.90;;;;;;12424072;28;20041;-37
2021/11/09 20:44:52;;;;;;;6.53;2.90;;;7.70;99.90;;;;;;12427627;28;20050;-37
2021/11/09 20:50:54;;;;;;;10.40;3.97;;;7.50;99.90;;;;;;12427270;28;20144;-41
2021/11/09 20:56:56;;;;;;;10.75;3.50;;;7.50;99.90;;;;;;12424081;28;20129;-40
2021/11/09 21:02:59;;;;;;;11.15;3.65;;;7.30;99.90;;;;;;12420816;28;20530;-41
2021/11/09 21:09:04;;;;;;;9.15;3.78;;;7.20;99.90;;;;;;12420759;28;20084;-38
2021/11/09 21:21:28;;;;;;;8.48;3.17;;;7.30;99.90;;;;;;12436222;28;20042;-37
2021/11/09 21:27:32;;;;;;;8.63;3.50;;;7.40;99.90;;;;;;12439712;28;20480;-41
2021/11/09 21:39:55;;;;;;;10.25;3.85;;;7.40;99.90;;;;;;12439116;28;20099;-37
2021/11/09 21:45:57;;;;;;;8.13;3.50;;;7.30;99.90;;;;;;12441024;28;20536;-41
2021/11/09 21:52:04;;;;;;;;;;;7.20;99.90;;;;;;12440266;28;20137;-41
2021/11/09 21:58:22;;;;;;;10.27;3.90;;;7.20;99.90;;;;;;12441959;28;19936;-37
2021/11/09 22:04:25;;;;;;;9.18;3.90;;;7.20;99.90;;;;;;12433311;28;20064;-42
2021/11/09 22:10:28;;;;;;;6.88;3.72;;;7.30;99.90;;;;;;12436852;28;20136;-37
2021/11/09 22:16:34;;;;;;;10.20;3.25;;;7.30;99.90;;;;;;12436436;28;20045;-42
2021/11/09 22:22:41;;;;;;;8.20;3.50;;;7.30;99.90;;;;;;12432078;28;20064;-40
2021/11/09 22:28:48;;;;;;;8.80;3.40;;;7.20;99.90;;;;;;12432445;28;20046;-41
2021/11/09 22:34:57;;;;;;;8.43;4.13;;;7.10;99.90;;;;;;12439866;28;20046;-41
2021/11/09 22:40:59;;;;;;;8.60;3.22;;;7.10;99.90;;;;;;12433923;28;20779;-37
2021/11/09 22:47:04;;;;;;;8.23;3.63;;;7.40;99.90;;;;;;12420400;28;20049;-38
2021/11/09 22:53:09;;;;;;;7.20;3.22;;;7.30;99.90;;;;;;12435850;28;20050;-37
2021/11/09 22:59:13;;;;;;;7.28;2.97;;;7.20;99.90;;;;;;12434607;28;20057;-38
2021/11/09 23:05:18;;;;;;;10.20;3.08;;;7.20;99.90;;;;;;12437052;28;20038;-41
2021/11/09 23:11:24;;;;;;;5.97;2.90;;;7.20;99.90;;;;;;12435060;28;20061;-41
2021/11/09 23:17:26;;;;;;;;;;;7.10;99.90;;;;;;12434225;28;20069;-42
2021/11/09 23:23:28;;;;;;;6.18;3.08;;;7.00;99.90;;;;;;12420044;28;19921;-41
2021/11/09 23:29:31;;;;;;;6.10;2.97;;;6.80;99.90;;;;;;12404817;28;20058;-41
2021/11/09 23:35:34;;;;;;;9.27;3.60;;;6.90;99.90;;;;;;12379053;28;20149;-40
2021/11/09 23:41:36;;;;;;;7.82;4.53;;;6.90;99.90;;;;;;12380427;28;20042;-41
2021/11/09 23:47:38;;;;;;;9.38;4.57;;;6.90;99.90;;;;;;12382507;28;20127;-37
2021/11/09 23:54:00;;;;;;;8.63;5.00;;;6.70;99.90;;;;;;12382081;28;20038;-41
